Time;durP1;ratioP1;P1;durP2;ratioP2;P2;SDS_P1;SDS_P2;PMS_P1;PMS_P2;Temp;Humidity;BMP_temperature;BMP_pressure;BME280_temperature;BME280_humidity;BME280_pressure;Samples;Min_cycle;Max_cycle;Signal;HPM_P1;HPM_P2
2022/01/06 00:01:51;;;;;;;3.60;1.20;;;4.90;97.50;;;;;;9187345;19;20014;-71
2022/01/06 00:04:56;;;;;;;3.85;1.13;;;4.90;97.50;;;;;;9187490;19;20018;-71
2022/01/06 00:08:01;;;;;;;2.55;0.82;;;4.90;97.50;;;;;;9187261;19;20014;-71
2022/01/06 00:11:11;;;;;;;4.30;1.13;;;4.90;97.50;;;;;;9185345;19;20011;-72
2022/01/06 00:14:23;;;;;;;2.10;0.65;;;4.80;97.40;;;;;;9185681;19;20495;-71
2022/01/06 00:17:40;;;;;;;2.40;0.70;;;4.80;97.40;;;;;;9187573;19;20352;-71
2022/01/06 00:24:07;;;;;;;2.75;0.60;;;4.80;97.50;;;;;;9187712;19;20029;-72
2022/01/06 00:27:17;;;;;;;1.67;0.70;;;4.80;97.50;;;;;;9184989;19;20026;-73
2022/01/06 00:30:22;;;;;;;3.10;1.00;;;4.80;97.50;;;;;;9188139;19;20014;-72
2022/01/06 00:33:31;;;;;;;2.90;0.68;;;4.80;97.50;;;;;;9185336;19;20042;-72
2022/01/06 00:36:39;;;;;;;1.92;0.50;;;4.80;97.60;;;;;;9184727;19;20476;-73
2022/01/06 00:39:48;;;;;;;1.90;0.60;;;4.70;97.50;;;;;;9187135;19;20010;-72
2022/01/06 00:43:06;;;;;;;0.73;0.30;;;4.80;97.60;;;;;;9184712;19;20011;-72
2022/01/06 00:46:18;;;;;;;2.65;0.55;;;4.80;97.60;;;;;;9185609;19;20487;-72
2022/01/06 00:49:23;;;;;;;2.08;0.60;;;4.80;97.60;;;;;;9185339;19;20356;-72
2022/01/06 00:52:28;;;;;;;1.45;0.55;;;4.80;97.60;;;;;;9186834;19;20018;-72
2022/01/06 00:55:36;;;;;;;2.25;0.30;;;4.80;97.60;;;;;;9184618;19;20018;-72
2022/01/06 00:58:44;;;;;;;2.40;0.50;;;4.80;97.60;;;;;;9188963;19;20463;-73
2022/01/06 01:01:49;;;;;;;0.98;0.35;;;4.80;97.60;;;;;;9184700;19;20471;-72
2022/01/06 01:04:54;;;;;;;3.83;0.70;;;4.80;97.60;;;;;;9186629;19;20015;-73
2022/01/06 01:07:59;;;;;;;2.30;0.50;;;4.90;97.60;;;;;;9184249;19;20131;-73
2022/01/06 01:11:04;;;;;;;3.00;0.70;;;4.90;97.60;;;;;;9181407;19;20002;-73
2022/01/06 01:14:26;;;;;;;2.88;0.50;;;4.90;97.60;;;;;;9185142;19;20007;-72
2022/01/06 01:17:34;;;;;;;3.72;0.82;;;4.90;97.60;;;;;;9181378;19;20006;-73
2022/01/06 01:20:42;;;;;;;4.57;1.08;;;4.90;97.60;;;;;;9180746;19;20522;-72
2022/01/06 01:23:49;;;;;;;1.25;0.60;;;4.90;97.50;;;;;;9181707;19;20022;-73
2022/01/06 01:26:54;;;;;;;1.30;0.75;;;4.80;97.50;;;;;;9182182;19;20500;-73
2022/01/06 01:30:10;;;;;;;3.15;0.60;;;4.80;97.50;;;;;;9183789;19;20127;-73
2022/01/06 01:33:28;;;;;;;3.80;0.90;;;4.80;97.50;;;;;;9181712;19;20023;-73
2022/01/06 01:36:36;;;;;;;4.03;0.90;;;4.80;97.50;;;;;;9181990;19;20010;-73
2022/01/06 01:39:41;;;;;;;2.80;0.70;;;4.80;97.50;;;;;;9182522;19;20471;-72
2022/01/06 01:42:50;;;;;;;2.83;0.63;;;4.80;97.50;;;;;;9183520;19;20692;-73
2022/01/06 01:46:10;;;;;;;2.20;0.73;;;4.80;97.50;;;;;;9182858;19;20018;-73
2022/01/06 01:49:30;;;;;;;3.53;0.80;;;4.80;97.60;;;;;;9184149;19;20041;-71
2022/01/06 01:52:36;;;;;;;1.42;0.77;;;4.80;97.60;;;;;;9178999;19;20009;-72
2022/01/06 01:55:43;;;;;;;1.90;0.80;;;4.80;97.60;;;;;;9179219;19;20018;-72
2022/01/06 01:58:50;;;;;;;2.00;0.93;;;4.80;97.60;;;;;;9182827;19;20018;-72
2022/01/06 02:01:59;;;;;;;5.30;1.42;;;4.80;97.60;;;;;;9180075;19;20022;-72
2022/01/06 02:05:06;;;;;;;5.30;0.90;;;4.80;97.60;;;;;;9183412;19;20015;-72
2022/01/06 02:08:11;;;;;;;3.20;0.73;;;4.80;97.60;;;;;;9038102;19;2764877;-73
2022/01/06 02:11:17;;;;;;;3.50;1.10;;;4.80;97.50;;;;;;9182490;19;20010;-73
2022/01/06 02:14:23;;;;;;;3.72;0.98;;;4.70;97.50;;;;;;9182509;19;20011;-72
2022/01/06 02:17:31;;;;;;;4.25;1.20;;;4.70;97.50;;;;;;9180334;19;20010;-74
2022/01/06 02:20:44;;;;;;;6.60;1.17;;;4.70;97.50;;;;;;9180394;19;20011;-72
2022/01/06 02:23:49;;;;;;;4.72;1.35;;;4.70;97.50;;;;;;9180841;19;20026;-72
2022/01/06 02:26:54;;;;;;;6.43;1.02;;;4.70;97.50;;;;;;9182766;19;20018;-72
2022/01/06 02:30:02;;;;;;;4.28;1.15;;;4.70;97.50;;;;;;9179525;19;20011;-72
2022/01/06 02:33:10;;;;;;;3.20;1.40;;;4.70;97.50;;;;;;9177629;19;20034;-72
2022/01/06 02:36:19;;;;;;;4.40;1.30;;;4.60;97.50;;;;;;9182176;19;20003;-73
2022/01/06 02:39:27;;;;;;;3.20;0.88;;;4.60;97.50;;;;;;9187753;19;20015;-72
2022/01/06 02:42:33;;;;;;;2.60;0.90;;;4.60;97.50;;;;;;9194103;19;20342;-72
2022/01/06 02:45:39;;;;;;;3.90;1.23;;;4.60;97.50;;;;;;9194596;19;20037;-72
2022/01/06 02:48:44;;;;;;;4.18;1.00;;;4.60;97.50;;;;;;9194864;19;20013;-73
2022/01/06 02:51:51;;;;;;;3.95;0.88;;;4.50;97.50;;;;;;9189836;19;20010;-72
2022/01/06 02:54:56;;;;;;;4.65;1.30;;;4.50;97.50;;;;;;9186221;19;20019;-72
2022/01/06 02:58:01;;;;;;;6.13;1.05;;;4.50;97.50;;;;;;9189841;19;20018;-72
2022/01/06 03:01:06;;;;;;;4.47;1.13;;;4.50;97.50;;;;;;9190041;19;20010;-72
2022/01/06 03:04:13;;;;;;;2.75;0.70;;;4.50;97.50;;;;;;9189424;19;20014;-72
2022/01/06 03:07:20;;;;;;;4.28;1.08;;;4.50;97.50;;;;;;9189847;19;20039;-72
2022/01/06 03:10:27;;;;;;;4.10;1.02;;;4.50;97.50;;;;;;9186827;19;20047;-72
2022/01/06 03:13:32;;;;;;;1.67;0.75;;;4.50;97.50;;;;;;9187397;19;20017;-72
2022/01/06 03:16:37;;;;;;;3.25;0.90;;;4.50;97.50;;;;;;9186462;19;20025;-72
2022/01/06 03:19:42;;;;;;;2.83;0.90;;;4.40;97.50;;;;;;9189935;19;20082;-72
2022/01/06 03:22:50;;;;;;;3.95;0.98;;;4.40;97.50;;;;;;9187669;19;20022;-72
2022/01/06 03:25:55;;;;;;;3.40;0.70;;;4.50;97.60;;;;;;9189927;19;20591;-72
2022/01/06 03:29:00;;;;;;;2.58;0.90;;;4.40;97.50;;;;;;9187749;19;20011;-72
2022/01/06 03:32:06;;;;;;;1.95;1.10;;;4.40;97.50;;;;;;9185615;19;20015;-72
2022/01/06 03:35:12;;;;;;;4.05;0.82;;;4.40;97.60;;;;;;9189745;19;20021;-72
2022/01/06 03:38:20;;;;;;;5.00;1.10;;;4.40;97.60;;;;;;9189683;19;20030;-72
2022/01/06 03:41:25;;;;;;;2.88;1.27;;;4.40;97.80;;;;;;9189915;19;20082;-72
2022/01/06 03:44:30;;;;;;;2.55;0.88;;;4.40;97.60;;;;;;9190010;19;20010;-73
2022/01/06 03:47:35;;;;;;;2.45;0.80;;;4.40;97.60;;;;;;9190620;19;20018;-73
2022/01/06 03:50:41;;;;;;;7.03;1.13;;;4.40;97.70;;;;;;9188879;19;20018;-72
2022/01/06 03:53:49;;;;;;;4.47;0.82;;;4.40;97.50;;;;;;9183894;19;20480;-73
2022/01/06 03:56:54;;;;;;;2.72;0.82;;;4.40;97.50;;;;;;9185782;19;20827;-73
2022/01/06 03:59:59;;;;;;;3.28;1.20;;;4.40;97.50;;;;;;9186531;19;20018;-72
2022/01/06 04:03:04;;;;;;;2.90;0.63;;;4.40;97.50;;;;;;9186511;19;20496;-72
2022/01/06 04:06:11;;;;;;;5.95;1.20;;;4.30;97.50;;;;;;9185799;19;20074;-72
2022/01/06 04:09:25;;;;;;;5.28;1.23;;;4.40;97.50;;;;;;9185319;19;20032;-74
2022/01/06 04:12:37;;;;;;;2.35;0.52;;;4.40;97.50;;;;;;9187296;19;20010;-72
2022/01/06 04:15:44;;;;;;;3.97;1.02;;;4.30;97.50;;;;;;9185248;19;20021;-72
2022/01/06 04:18:50;;;;;;;4.03;1.10;;;4.30;97.80;;;;;;9186250;19;20034;-72
2022/01/06 04:21:55;;;;;;;3.10;0.60;;;4.30;97.50;;;;;;9186924;19;20487;-73
2022/01/06 04:25:09;;;;;;;3.45;0.82;;;4.30;97.50;;;;;;9185838;19;20014;-71
2022/01/06 04:28:15;;;;;;;3.50;0.68;;;4.30;97.50;;;;;;9184483;19;20014;-73
2022/01/06 04:31:23;;;;;;;5.82;1.05;;;4.30;97.50;;;;;;9184754;19;20014;-73
2022/01/06 04:34:28;;;;;;;4.80;1.08;;;4.20;97.50;;;;;;9186168;19;20521;-73
2022/01/06 04:37:33;;;;;;;1.15;0.50;;;4.20;97.40;;;;;;9187055;19;20007;-73
2022/01/06 04:40:41;;;;;;;6.03;1.73;;;4.20;97.40;;;;;;9187086;19;20007;-72
2022/01/06 04:43:51;;;;;;;3.83;1.00;;;4.20;97.40;;;;;;9186968;19;20011;-72
2022/01/06 04:46:58;;;;;;;3.85;1.10;;;4.20;97.40;;;;;;9185757;19;20078;-72
2022/01/06 04:50:03;;;;;;;3.05;0.82;;;4.20;97.40;;;;;;9187103;19;20010;-73
2022/01/06 04:53:09;;;;;;;4.35;1.05;;;4.20;97.40;;;;;;9183511;19;20011;-72
2022/01/06 04:56:18;;;;;;;3.00;0.98;;;4.10;97.40;;;;;;9185545;19;20022;-72
2022/01/06 04:59:33;;;;;;;1.38;0.57;;;4.10;97.40;;;;;;9186598;19;20007;-72
2022/01/06 05:02:38;;;;;;;3.42;0.88;;;4.10;97.40;;;;;;9180260;19;20014;-73
2022/01/06 05:05:47;;;;;;;6.53;1.15;;;4.10;97.40;;;;;;9185755;19;20018;-73
2022/01/06 05:08:59;;;;;;;4.20;0.80;;;4.10;97.40;;;;;;9186915;19;20014;-73
2022/01/06 05:12:10;;;;;;;5.05;0.98;;;4.10;97.40;;;;;;9187328;19;20018;-73
2022/01/06 05:15:24;;;;;;;3.58;0.73;;;4.10;97.40;;;;;;9187621;19;20018;-72
2022/01/06 05:18:38;;;;;;;2.13;0.63;;;4.00;97.30;;;;;;9187095;19;20010;-74
2022/01/06 05:21:43;;;;;;;2.85;1.10;;;4.00;97.30;;;;;;9186262;19;20014;-71
2022/01/06 05:24:48;;;;;;;3.97;0.75;;;3.90;97.20;;;;;;9185420;19;20368;-72
2022/01/06 05:27:57;;;;;;;2.13;0.70;;;3.90;97.20;;;;;;9187321;19;20073;-72
2022/01/06 05:31:02;;;;;;;4.43;0.95;;;3.90;97.20;;;;;;9185285;19;20021;-72
2022/01/06 05:34:11;;;;;;;1.80;0.77;;;3.80;97.20;;;;;;9183651;19;20522;-71
2022/01/06 05:37:16;;;;;;;2.35;0.60;;;3.80;97.20;;;;;;9185451;19;20074;-72
2022/01/06 05:40:21;;;;;;;3.88;1.00;;;3.70;97.10;;;;;;9182855;19;20018;-71
2022/01/06 05:43:29;;;;;;;3.63;0.90;;;3.70;97.20;;;;;;9186395;19;20021;-72
2022/01/06 05:46:34;;;;;;;1.63;0.70;;;3.70;97.20;;;;;;9182732;19;20483;-74
2022/01/06 05:49:40;;;;;;;3.72;0.82;;;3.60;97.20;;;;;;9181581;19;20045;-72
2022/01/06 05:52:45;;;;;;;6.70;1.33;;;3.60;97.20;;;;;;9183783;19;20014;-72
2022/01/06 05:55:50;;;;;;;2.55;0.88;;;3.60;97.20;;;;;;9180948;19;20010;-72
2022/01/06 05:58:57;;;;;;;3.03;0.80;;;3.50;97.20;;;;;;9183315;19;20043;-72
2022/01/06 06:02:03;;;;;;;4.55;0.90;;;3.50;97.20;;;;;;9182135;19;20475;-70
2022/01/06 06:05:08;;;;;;;2.88;0.90;;;3.50;97.20;;;;;;9183309;19;20031;-70
2022/01/06 06:08:14;;;;;;;2.88;0.70;;;3.40;97.10;;;;;;9183522;19;20020;-70
2022/01/06 06:11:19;;;;;;;4.35;0.75;;;3.40;97.40;;;;;;9184288;19;20031;-70
2022/01/06 06:14:26;;;;;;;2.17;1.00;;;3.30;97.10;;;;;;9180840;19;20471;-70
2022/01/06 06:17:34;;;;;;;2.55;0.65;;;3.30;97.10;;;;;;9181947;19;20007;-71
2022/01/06 06:20:40;;;;;;;3.25;0.80;;;3.30;97.10;;;;;;9181315;19;20389;-72
2022/01/06 06:23:45;;;;;;;2.15;0.80;;;3.20;97.10;;;;;;9182249;19;20021;-72
2022/01/06 06:26:50;;;;;;;1.65;0.75;;;3.20;97.10;;;;;;9182230;19;20504;-72
2022/01/06 06:29:58;;;;;;;5.53;1.02;;;3.10;97.10;;;;;;9180190;19;20351;-72
2022/01/06 06:33:08;;;;;;;3.92;1.00;;;3.10;97.10;;;;;;9182498;19;20090;-72
2022/01/06 06:36:13;;;;;;;2.80;1.02;;;3.10;97.20;;;;;;9182315;19;20033;-72
2022/01/06 06:39:23;;;;;;;3.13;0.85;;;3.00;97.10;;;;;;9183524;19;20014;-71
2022/01/06 06:42:29;;;;;;;2.20;0.75;;;3.00;97.10;;;;;;9182108;19;20018;-72
2022/01/06 06:45:37;;;;;;;4.45;1.52;;;3.00;97.10;;;;;;9183293;19;20014;-72
2022/01/06 06:48:42;;;;;;;4.25;1.00;;;2.90;97.10;;;;;;9183526;19;20321;-72
2022/01/06 06:51:50;;;;;;;3.55;1.10;;;2.90;97.10;;;;;;9182684;19;20003;-72
2022/01/06 06:54:58;;;;;;;4.93;0.95;;;2.80;97.10;;;;;;9177728;19;20015;-72
2022/01/06 06:58:03;;;;;;;3.25;1.20;;;2.80;97.10;;;;;;9182668;19;20021;-72
2022/01/06 07:01:11;;;;;;;4.93;1.75;;;2.80;97.20;;;;;;9180200;19;20017;-72
2022/01/06 07:04:16;;;;;;;2.30;1.00;;;2.70;97.10;;;;;;9180025;19;20109;-71
2022/01/06 07:07:41;;;;;;;2.45;1.02;;;2.70;97.10;;;;;;9182521;19;20220;-72
2022/01/06 07:10:46;;;;;;;3.92;1.10;;;2.70;97.20;;;;;;9181939;19;20043;-71
2022/01/06 07:13:54;;;;;;;3.28;1.08;;;2.70;97.20;;;;;;9179615;19;20061;-72
2022/01/06 07:17:01;;;;;;;3.40;1.13;;;2.60;97.20;;;;;;9175725;19;20043;-72
2022/01/06 07:20:08;;;;;;;6.32;1.30;;;2.60;97.20;;;;;;9178869;19;20504;-71
2022/01/06 07:23:13;;;;;;;2.25;1.05;;;2.60;97.20;;;;;;9177075;19;20018;-72
2022/01/06 07:26:18;;;;;;;5.32;1.45;;;2.60;97.20;;;;;;9183943;19;20014;-72
2022/01/06 07:29:23;;;;;;;3.65;1.05;;;2.60;97.20;;;;;;9187061;19;20029;-71
2022/01/06 07:32:31;;;;;;;4.40;1.25;;;2.50;97.20;;;;;;9186537;19;20007;-71
2022/01/06 07:35:36;;;;;;;3.95;1.10;;;2.50;97.20;;;;;;9184197;19;20081;-72
2022/01/06 07:38:41;;;;;;;4.88;1.30;;;2.50;97.20;;;;;;9187268;19;20610;-72
2022/01/06 07:41:46;;;;;;;4.70;0.95;;;2.50;97.20;;;;;;9190402;19;20015;-70
2022/01/06 07:44:51;;;;;;;3.60;1.00;;;2.40;97.40;;;;;;9187901;19;20022;-70
2022/01/06 07:48:02;;;;;;;3.53;0.90;;;2.40;97.20;;;;;;9187460;19;20007;-70
2022/01/06 07:51:07;;;;;;;4.43;1.30;;;2.40;97.20;;;;;;9186851;19;20018;-70
2022/01/06 07:54:12;;;;;;;5.82;1.30;;;2.30;97.10;;;;;;9186317;19;20023;-71
2022/01/06 07:57:17;;;;;;;2.58;0.80;;;2.30;97.20;;;;;;9188605;19;20024;-70
2022/01/06 08:00:23;;;;;;;5.18;1.15;;;2.30;97.10;;;;;;9187869;19;20015;-70
2022/01/06 08:03:30;;;;;;;3.40;0.75;;;2.30;97.20;;;;;;9185714;19;20389;-70
2022/01/06 08:06:35;;;;;;;5.47;1.42;;;2.20;97.10;;;;;;9188249;19;20006;-69
2022/01/06 08:09:45;;;;;;;3.00;1.05;;;2.20;97.20;;;;;;9186143;19;20025;-71
2022/01/06 08:12:51;;;;;;;4.45;1.00;;;2.20;97.20;;;;;;9187547;19;20015;-71
2022/01/06 08:15:56;;;;;;;6.40;1.63;;;2.20;97.20;;;;;;9185954;19;20014;-71
2022/01/06 08:19:03;;;;;;;5.68;1.20;;;2.20;97.20;;;;;;9188350;19;20015;-71
2022/01/06 08:22:08;;;;;;;2.88;0.77;;;2.20;97.20;;;;;;9189145;19;20010;-70
2022/01/06 08:25:16;;;;;;;3.17;1.08;;;2.10;97.20;;;;;;9187699;19;20011;-70
2022/01/06 08:28:21;;;;;;;1.42;0.77;;;2.20;97.20;;;;;;9189568;19;20021;-71
2022/01/06 08:31:26;;;;;;;6.53;1.70;;;2.10;97.20;;;;;;9187384;19;20010;-70
2022/01/06 08:34:34;;;;;;;3.60;0.93;;;2.10;97.20;;;;;;9183576;19;20025;-70
2022/01/06 08:37:40;;;;;;;3.15;1.30;;;2.10;97.30;;;;;;9181516;19;20586;-70
2022/01/06 08:40:45;;;;;;;4.32;1.00;;;2.10;97.30;;;;;;9186153;19;20014;-70
2022/01/06 08:43:50;;;;;;;5.10;0.80;;;2.10;97.30;;;;;;9184484;19;20082;-70
2022/01/06 08:46:58;;;;;;;2.80;0.85;;;2.00;97.30;;;;;;9185317;19;20016;-71
2022/01/06 08:50:07;;;;;;;2.72;0.85;;;2.10;97.30;;;;;;9185704;19;20029;-70
2022/01/06 08:53:14;;;;;;;3.08;1.20;;;2.00;97.30;;;;;;9181319;19;20018;-70
2022/01/06 08:56:25;;;;;;;4.13;1.38;;;2.00;97.30;;;;;;9183997;19;20688;-70
2022/01/06 08:59:30;;;;;;;3.00;1.00;;;2.10;97.30;;;;;;9183808;19;20018;-70
2022/01/06 09:02:42;;;;;;;3.47;1.23;;;2.10;97.40;;;;;;9183391;19;20349;-72
2022/01/06 09:05:50;;;;;;;3.50;0.80;;;2.00;97.30;;;;;;9182139;19;20082;-69
2022/01/06 09:08:55;;;;;;;2.28;0.75;;;2.00;97.40;;;;;;9182710;19;20011;-69
2022/01/06 09:12:00;;;;;;;3.13;0.80;;;2.10;97.40;;;;;;9182672;19;20341;-71
2022/01/06 09:15:06;;;;;;;4.97;0.90;;;2.10;97.40;;;;;;9184813;19;20014;-69
2022/01/06 09:18:11;;;;;;;1.98;0.82;;;2.10;97.40;;;;;;9183113;19;20348;-70
2022/01/06 09:21:22;;;;;;;2.97;0.93;;;2.10;97.40;;;;;;9183377;19;20017;-70
2022/01/06 09:24:28;;;;;;;4.03;0.95;;;2.10;97.40;;;;;;9183631;19;20006;-70
2022/01/06 09:27:33;;;;;;;2.92;1.20;;;2.10;97.50;;;;;;9183915;19;20014;-70
2022/01/06 09:30:38;;;;;;;2.67;1.00;;;2.10;97.40;;;;;;9181280;19;20066;-70
2022/01/06 09:33:43;;;;;;;4.03;1.20;;;2.20;97.50;;;;;;9184557;19;20014;-70
2022/01/06 09:36:51;;;;;;;2.83;0.88;;;2.20;97.50;;;;;;9183699;19;20376;-70
2022/01/06 09:39:56;;;;;;;5.40;1.05;;;2.20;97.50;;;;;;9182693;19;20025;-70
2022/01/06 09:43:01;;;;;;;9.70;1.25;;;2.20;97.50;;;;;;9184086;19;20018;-71
2022/01/06 09:46:09;;;;;;;3.08;0.75;;;2.20;97.50;;;;;;9183184;19;20663;-70
2022/01/06 09:49:14;;;;;;;5.00;1.23;;;2.30;97.60;;;;;;9181855;19;20026;-71
2022/01/06 09:52:24;;;;;;;7.45;2.40;;;2.30;97.60;;;;;;9183881;19;20061;-69
2022/01/06 09:55:34;;;;;;;6.63;1.90;;;2.30;97.70;;;;;;9178372;19;20017;-70
2022/01/06 09:58:39;;;;;;;5.82;2.20;;;2.40;97.70;;;;;;9179464;19;20021;-70
2022/01/06 10:01:44;;;;;;;5.28;1.67;;;2.40;97.70;;;;;;9178842;19;20027;-71
2022/01/06 10:05:02;;;;;;;5.55;1.23;;;2.50;97.80;;;;;;9180005;19;20013;-70
2022/01/06 10:08:10;;;;;;;3.75;1.17;;;2.50;97.80;;;;;;9180055;19;20702;-71
2022/01/06 10:11:18;;;;;;;3.22;1.20;;;2.60;97.90;;;;;;9178491;19;20076;-71
2022/01/06 10:14:32;;;;;;;5.05;1.30;;;2.70;98.00;;;;;;9182881;19;20015;-71
2022/01/06 10:17:37;;;;;;;6.85;1.42;;;2.70;98.10;;;;;;9182233;19;20025;-71
2022/01/06 10:20:48;;;;;;;4.85;1.13;;;2.90;98.20;;;;;;9177890;19;20014;-72
2022/01/06 10:24:11;;;;;;;4.18;1.23;;;3.10;98.40;;;;;;9179686;19;20015;-72
2022/01/06 10:27:18;;;;;;;7.60;2.10;;;3.20;98.50;;;;;;9180312;19;20021;-71
2022/01/06 10:30:25;;;;;;;4.78;1.67;;;3.40;98.50;;;;;;9178214;19;20018;-72
2022/01/06 10:33:39;;;;;;;5.68;1.75;;;3.50;98.60;;;;;;9177979;19;20368;-71
2022/01/06 10:36:44;;;;;;;6.35;1.23;;;3.70;98.60;;;;;;9177490;19;20046;-71
2022/01/06 10:39:54;;;;;;;4.95;1.27;;;3.90;98.60;;;;;;9180449;19;20022;-71
2022/01/06 10:43:05;;;;;;;2.13;0.95;;;4.00;98.60;;;;;;9177293;19;20018;-71
2022/01/06 10:46:10;;;;;;;5.55;1.13;;;4.10;98.50;;;;;;9179311;19;20081;-71
2022/01/06 10:49:16;;;;;;;2.08;0.80;;;4.20;98.40;;;;;;9180174;19;20025;-71
2022/01/06 10:52:28;;;;;;;2.65;1.23;;;4.30;98.40;;;;;;9180706;19;20022;-71
2022/01/06 10:55:37;;;;;;;3.83;1.05;;;4.40;98.40;;;;;;9174196;19;20014;-72
2022/01/06 10:58:46;;;;;;;4.60;1.15;;;4.40;98.30;;;;;;9179042;19;20062;-71
2022/01/06 11:01:59;;;;;;;1.38;0.68;;;4.50;98.30;;;;;;9188240;19;20133;-73
2022/01/06 11:05:04;;;;;;;2.08;0.43;;;4.60;98.30;;;;;;9186152;19;20018;-71
2022/01/06 11:08:16;;;;;;;2.97;0.90;;;4.60;98.20;;;;;;9187422;19;20104;-71
2022/01/06 11:11:42;;;;;;;3.35;0.80;;;4.70;98.20;;;;;;9188330;19;20097;-72
2022/01/06 11:14:48;;;;;;;3.28;0.95;;;4.70;98.20;;;;;;9188423;19;20025;-72
2022/01/06 11:17:53;;;;;;;3.22;1.23;;;4.70;98.10;;;;;;9188139;19;20010;-72
2022/01/06 11:21:06;;;;;;;5.18;1.30;;;4.80;98.10;;;;;;9191223;19;20476;-72
2022/01/06 11:24:16;;;;;;;6.30;1.65;;;4.80;98.10;;;;;;9186714;19;20484;-72
2022/01/06 11:27:33;;;;;;;2.50;1.00;;;4.90;98.10;;;;;;9183416;19;20026;-72
2022/01/06 11:30:44;;;;;;;1.98;0.77;;;4.90;98.10;;;;;;9184879;19;20021;-71
2022/01/06 11:33:51;;;;;;;3.28;0.90;;;4.90;98.10;;;;;;9184314;19;20014;-73
2022/01/06 11:36:58;;;;;;;3.75;1.00;;;5.00;98.10;;;;;;9183634;19;20011;-72
2022/01/06 11:40:07;;;;;;;3.40;1.33;;;5.00;98.10;;;;;;9185497;19;20666;-72
2022/01/06 11:43:14;;;;;;;3.45;0.98;;;5.00;98.10;;;;;;9186570;19;20476;-72
2022/01/06 11:46:19;;;;;;;2.08;0.93;;;5.10;98.10;;;;;;9189155;19;20018;-71
2022/01/06 11:49:35;;;;;;;5.93;1.00;;;5.10;98.10;;;;;;9189971;19;20021;-72
2022/01/06 11:52:52;;;;;;;4.07;1.17;;;5.10;98.10;;;;;;9189222;19;20070;-72
2022/01/06 11:55:58;;;;;;;2.75;1.02;;;5.20;98.20;;;;;;9184665;19;20018;-72
2022/01/06 11:59:09;;;;;;;4.60;1.23;;;5.20;98.10;;;;;;9189315;19;20010;-72
2022/01/06 12:02:22;;;;;;;4.55;1.02;;;5.30;98.10;;;;;;9187002;19;20014;-72
2022/01/06 12:05:30;;;;;;;3.95;1.05;;;5.30;98.20;;;;;;9186440;19;20025;-72
2022/01/06 12:08:41;;;;;;;3.88;1.33;;;5.30;98.10;;;;;;9184358;19;20476;-72
2022/01/06 12:12:00;;;;;;;4.97;1.00;;;5.40;98.10;;;;;;9187707;19;21647;-72
2022/01/06 12:15:16;;;;;;;4.65;0.93;;;5.40;98.10;;;;;;9187996;19;20015;-72
2022/01/06 12:18:23;;;;;;;2.60;1.13;;;5.50;98.10;;;;;;9187357;19;20044;-72
2022/01/06 12:21:29;;;;;;;3.90;1.17;;;5.50;98.10;;;;;;9187192;19;20034;-72
2022/01/06 12:24:34;;;;;;;3.63;1.10;;;5.50;98.10;;;;;;9188418;19;20007;-72
2022/01/06 12:27:48;;;;;;;4.80;1.20;;;5.60;98.10;;;;;;9187559;19;20028;-72
2022/01/06 12:30:59;;;;;;;4.55;1.20;;;5.60;98.10;;;;;;9188592;19;20361;-72
2022/01/06 12:34:04;;;;;;;3.85;1.10;;;5.60;98.10;;;;;;9188762;19;20018;-72
2022/01/06 12:37:09;;;;;;;4.22;0.98;;;5.70;98.10;;;;;;9186042;19;20041;-72
2022/01/06 12:40:14;;;;;;;2.22;0.90;;;5.70;98.00;;;;;;9189185;19;20336;-72
2022/01/06 12:43:37;;;;;;;4.30;1.13;;;5.70;98.00;;;;;;9188907;19;20382;-72
2022/01/06 12:46:45;;;;;;;4.13;0.88;;;5.70;98.00;;;;;;9188669;19;20015;-74
2022/01/06 12:49:50;;;;;;;5.28;1.02;;;5.80;98.00;;;;;;9184193;19;20022;-72
2022/01/06 12:52:55;;;;;;;2.88;0.98;;;5.80;98.00;;;;;;9182676;19;20021;-73
2022/01/06 12:56:01;;;;;;;2.53;1.00;;;5.80;98.00;;;;;;9184065;19;20464;-72
2022/01/06 12:59:10;;;;;;;3.22;1.42;;;5.90;98.00;;;;;;9185793;19;20047;-72
2022/01/06 13:02:20;;;;;;;2.58;0.88;;;5.90;98.00;;;;;;9183966;19;20018;-73
2022/01/06 13:05:27;;;;;;;2.28;0.90;;;5.90;98.00;;;;;;9182898;19;20018;-72
2022/01/06 13:08:50;;;;;;;3.13;1.08;;;5.90;98.00;;;;;;9183815;19;20027;-72
2022/01/06 13:12:00;;;;;;;3.65;1.00;;;6.00;98.00;;;;;;9183820;19;20471;-71
2022/01/06 13:15:07;;;;;;;3.17;1.15;;;6.00;98.00;;;;;;9185266;19;20034;-71
2022/01/06 13:18:27;;;;;;;4.82;0.88;;;6.00;98.00;;;;;;9182842;19;20385;-72
2022/01/06 13:21:38;;;;;;;2.28;0.93;;;6.00;98.00;;;;;;9184631;19;20014;-71
2022/01/06 13:24:46;;;;;;;3.03;1.17;;;6.00;98.00;;;;;;9182017;19;20070;-71
2022/01/06 13:27:57;;;;;;;4.40;1.02;;;6.10;98.00;;;;;;9183121;19;20010;-71
2022/01/06 13:31:02;;;;;;;2.78;0.93;;;6.10;98.00;;;;;;9181333;19;20010;-71
2022/01/06 13:34:20;;;;;;;4.47;0.98;;;6.10;97.90;;;;;;9183403;19;20014;-71
2022/01/06 13:37:32;;;;;;;2.20;0.65;;;6.10;97.90;;;;;;9183555;19;20010;-71
2022/01/06 13:40:50;;;;;;;3.75;1.13;;;6.20;97.90;;;;;;9183869;19;20110;-72
2022/01/06 13:43:59;;;;;;;4.60;1.10;;;6.20;97.90;;;;;;9184369;19;20018;-72
2022/01/06 13:47:12;;;;;;;5.05;0.93;;;6.20;97.90;;;;;;9183330;19;20016;-72
2022/01/06 13:53:54;;;;;;;5.88;1.30;;;6.20;97.90;;;;;;9179493;19;20011;-72
2022/01/06 13:57:12;;;;;;;3.78;1.00;;;6.20;97.90;;;;;;9181555;19;20015;-71
2022/01/06 14:00:18;;;;;;;2.75;0.90;;;6.30;97.90;;;;;;9181565;19;20007;-71
2022/01/06 14:03:27;;;;;;;3.70;1.00;;;6.30;97.90;;;;;;9182535;19;20021;-71
2022/01/06 14:06:35;;;;;;;3.20;1.20;;;6.30;97.90;;;;;;9182514;19;20015;-71
2022/01/06 14:09:40;;;;;;;4.28;1.17;;;6.30;97.90;;;;;;9181841;19;20464;-71
2022/01/06 14:12:46;;;;;;;6.20;1.23;;;6.30;97.90;;;;;;9183026;19;20010;-71
2022/01/06 14:15:51;;;;;;;2.83;1.02;;;6.30;97.90;;;;;;9181451;19;20002;-71
2022/01/06 14:18:56;;;;;;;3.28;0.95;;;6.30;97.80;;;;;;9182119;19;20007;-71
2022/01/06 14:22:03;;;;;;;3.55;0.88;;;6.30;97.80;;;;;;9182882;19;20049;-71
2022/01/06 14:25:09;;;;;;;3.10;1.20;;;6.30;97.80;;;;;;9183127;19;20364;-71
2022/01/06 14:28:14;;;;;;;4.03;1.08;;;6.30;97.80;;;;;;9183044;19;20360;-71
2022/01/06 14:31:19;;;;;;;2.75;0.90;;;6.30;97.80;;;;;;9183560;19;20048;-71
2022/01/06 14:34:25;;;;;;;3.08;1.02;;;6.30;97.70;;;;;;9186614;19;20020;-71
2022/01/06 14:37:33;;;;;;;4.10;1.27;;;6.30;97.70;;;;;;9190279;19;20983;-71
2022/01/06 14:40:38;;;;;;;2.95;0.88;;;6.40;97.70;;;;;;9192270;19;20030;-71
2022/01/06 14:43:48;;;;;;;4.93;1.42;;;6.40;97.70;;;;;;9192031;19;20021;-71
2022/01/06 14:46:53;;;;;;;2.42;0.95;;;6.40;97.70;;;;;;9192062;19;20383;-71
2022/01/06 14:49:58;;;;;;;2.42;1.20;;;6.40;97.70;;;;;;9190594;19;20472;-71
2022/01/06 14:53:06;;;;;;;4.13;1.10;;;6.40;97.70;;;;;;9188545;19;20018;-71
2022/01/06 14:56:11;;;;;;;4.15;1.00;;;6.40;97.70;;;;;;9191950;19;20041;-71
2022/01/06 14:59:16;;;;;;;2.75;1.08;;;6.30;97.90;;;;;;9191374;19;20359;-71
2022/01/06 15:02:21;;;;;;;3.45;0.90;;;6.30;97.60;;;;;;9187510;19;20014;-71
2022/01/06 15:05:26;;;;;;;3.75;0.93;;;6.30;97.60;;;;;;9187409;19;20010;-71
2022/01/06 15:08:35;;;;;;;3.20;1.40;;;6.30;97.60;;;;;;9187691;19;20029;-71
2022/01/06 15:11:40;;;;;;;1.90;0.70;;;6.30;97.60;;;;;;9187960;19;20372;-72
2022/01/06 15:14:45;;;;;;;5.28;1.20;;;6.30;97.50;;;;;;9188719;19;20014;-71
2022/01/06 15:17:53;;;;;;;3.60;1.05;;;6.30;97.60;;;;;;9187455;19;20020;-71
2022/01/06 15:21:02;;;;;;;3.90;1.33;;;6.20;97.50;;;;;;9187424;19;20486;-71
2022/01/06 15:24:11;;;;;;;4.82;0.93;;;6.20;97.50;;;;;;9186610;19;20490;-71
2022/01/06 15:27:19;;;;;;;2.55;0.80;;;6.20;97.50;;;;;;9187298;19;20021;-72
2022/01/06 15:30:24;;;;;;;4.60;1.20;;;6.20;97.50;;;;;;9187282;19;20011;-72
2022/01/06 15:33:35;;;;;;;4.05;0.90;;;6.10;97.40;;;;;;9187423;19;20345;-71
2022/01/06 15:36:40;;;;;;;2.38;1.00;;;6.10;97.40;;;;;;9189052;19;20017;-71
2022/01/06 15:39:48;;;;;;;4.07;1.10;;;6.10;97.40;;;;;;9186376;19;20022;-71
2022/01/06 15:42:53;;;;;;;2.90;0.90;;;6.00;97.40;;;;;;9188699;19;20015;-71
2022/01/06 15:45:58;;;;;;;3.60;0.82;;;6.00;97.40;;;;;;9185901;19;20017;-71
2022/01/06 15:49:05;;;;;;;2.45;0.80;;;6.00;97.40;;;;;;9187111;19;20014;-71
2022/01/06 15:52:10;;;;;;;2.05;0.90;;;5.90;97.40;;;;;;9186005;19;20018;-71
2022/01/06 15:55:18;;;;;;;2.85;1.00;;;5.90;97.30;;;;;;9182276;19;20019;-72
2022/01/06 15:58:24;;;;;;;4.20;1.10;;;5.90;97.40;;;;;;9185765;19;20704;-72
2022/01/06 16:05:00;;;;;;;5.65;1.35;;;5.80;97.30;;;;;;9188166;19;20025;-72
2022/01/06 16:05:12;;;;;;;3.28;1.30;;;5.80;97.30;;;;;;9188784;19;20017;-72
2022/01/06 16:08:21;;;;;;;3.58;1.38;;;5.80;97.30;;;;;;9179117;19;20049;-73
2022/01/06 16:11:33;;;;;;;3.38;1.38;;;5.80;97.60;;;;;;9180921;19;20019;-71
2022/01/06 16:15:04;;;;;;;5.70;1.38;;;5.70;97.30;;;;;;9180549;19;20022;-73
2022/01/06 16:18:12;;;;;;;3.13;1.50;;;5.70;97.40;;;;;;9179370;19;20081;-74
2022/01/06 16:21:44;;;;;;;3.13;1.45;;;5.70;97.30;;;;;;9178779;19;20101;-73
2022/01/06 16:24:52;;;;;;;5.38;2.25;;;5.60;97.30;;;;;;9180611;19;20057;-73
2022/01/06 16:28:03;;;;;;;6.25;2.47;;;5.60;97.30;;;;;;9183126;19;20018;-73
2022/01/06 16:31:42;;;;;;;5.85;1.65;;;5.50;97.30;;;;;;9182184;19;20439;-73
2022/01/06 16:34:48;;;;;;;5.07;1.77;;;5.50;97.30;;;;;;9180827;19;20015;-73
2022/01/06 16:37:53;;;;;;;6.07;1.90;;;5.50;97.30;;;;;;9183751;19;20017;-72
2022/01/06 16:40:58;;;;;;;5.07;1.63;;;5.40;97.30;;;;;;9182996;19;20045;-71